createdAt,value
2019-04-14T00:01:02.889Z,45.88
2019-04-14T00:03:21.584Z,42.30
2019-04-14T00:05:31.526Z,42.30
2019-04-14T00:07:39.005Z,38.05
2019-04-14T00:09:47.611Z,33.70
2019-04-14T00:11:56.939Z,33.48
2019-04-14T00:14:05.823Z,32.42
2019-04-14T00:16:16.375Z,34.18
2019-04-14T00:18:25.129Z,33.23
2019-04-14T00:20:33.684Z,31.85
2019-04-14T00:22:42.494Z,33.20
2019-04-14T00:24:51.094Z,33.13
2019-04-14T00:26:59.551Z,32.58
2019-04-14T00:29:08.933Z,31.95
2019-04-14T00:31:17.350Z,33.67
2019-04-14T00:33:28.084Z,34.38
2019-04-14T00:35:49.794Z,31.40
2019-04-14T00:38:17.254Z,33.92
2019-04-14T00:40:29.621Z,31.62
2019-04-14T00:42:58.076Z,32.00
2019-04-14T00:45:11.216Z,32.03
2019-04-14T00:47:48.389Z,31.20
2019-04-14T00:49:46.280Z,29.85
2019-04-14T00:51:54.999Z,31.30
2019-04-14T00:54:04.367Z,32.75
2019-04-14T00:56:12.854Z,32.53
2019-04-14T00:58:21.938Z,28.45
2019-04-14T01:00:29.775Z,28.47
2019-04-14T01:02:38.533Z,31.23
2019-04-14T01:04:46.960Z,31.80
2019-04-14T01:06:55.501Z,29.82
2019-04-14T01:09:04.288Z,30.35
2019-04-14T01:11:12.431Z,31.77
2019-04-14T01:13:20.300Z,30.43
2019-04-14T01:15:29.023Z,31.97
2019-04-14T01:17:37.373Z,30.25
2019-04-14T01:19:45.992Z,28.60
2019-04-14T01:21:54.562Z,26.93
2019-04-14T01:24:03.204Z,23.38
2019-04-14T01:26:11.756Z,27.87
2019-04-14T01:28:20.119Z,22.93
2019-04-14T01:30:29.130Z,30.32
2019-04-14T01:32:37.236Z,26.42
2019-04-14T01:34:45.647Z,30.35
2019-04-14T01:36:54.032Z,27.75
2019-04-14T01:39:02.530Z,27.95
2019-04-14T01:41:12.888Z,26.27
2019-04-14T01:43:21.341Z,25.40
2019-04-14T01:45:29.582Z,28.35
2019-04-14T01:47:37.762Z,28.42
2019-04-14T01:49:46.610Z,24.90
2019-04-14T01:52:12.461Z,26.25
2019-04-14T01:54:34.495Z,26.10
2019-04-14T01:56:47.161Z,28.47
2019-04-14T01:58:57.950Z,27.37
2019-04-14T02:01:14.951Z,26.65
2019-04-14T02:03:23.827Z,26.48
2019-04-14T02:05:32.103Z,29.48
2019-04-14T02:07:40.468Z,31.75
2019-04-14T02:09:48.927Z,37.17
2019-04-14T02:11:57.479Z,31.87
2019-04-14T02:14:06.175Z,25.70
2019-04-14T02:16:24.926Z,27.55
2019-04-14T02:18:24.949Z,22.70
2019-04-14T02:20:33.916Z,23.60
2019-04-14T02:22:42.005Z,25.68
2019-04-14T02:24:50.333Z,25.97
2019-04-14T02:26:59.142Z,25.27
2019-04-14T02:29:07.935Z,20.23
2019-04-14T02:31:35.580Z,27.00
2019-04-14T02:33:52.573Z,22.67
2019-04-14T02:36:06.317Z,27.82
2019-04-14T02:38:35.992Z,17.95
2019-04-14T02:40:34.868Z,24.18
2019-04-14T02:42:34.269Z,26.30
2019-04-14T02:48:58.719Z,26.10
2019-04-14T02:51:12.477Z,25.12
2019-04-14T02:53:25.308Z,26.93
2019-04-14T02:55:26.279Z,24.82
2019-04-14T03:02:14.094Z,26.00
2019-04-14T03:04:08.979Z,21.00
2019-04-14T03:06:18.168Z,22.87
2019-04-14T03:08:34.352Z,25.30
2019-04-14T03:12:46.576Z,24.15
2019-04-14T03:15:07.191Z,21.70
2019-04-14T03:17:21.507Z,22.00
2019-04-14T03:19:14.676Z,23.62
2019-04-14T03:21:36.095Z,23.38
2019-04-14T03:24:07.135Z,22.35
2019-04-14T03:26:23.021Z,20.95
2019-04-14T03:28:36.514Z,23.42
2019-04-14T03:31:12.263Z,19.73
2019-04-14T03:33:21.820Z,20.25
2019-04-14T03:35:20.119Z,22.67
2019-04-14T03:39:23.495Z,22.65
2019-04-14T03:41:32.610Z,21.15
2019-04-14T03:43:39.291Z,21.73
2019-04-14T03:45:55.187Z,21.23
2019-04-14T03:48:16.872Z,21.97
2019-04-14T03:50:06.063Z,22.35
2019-04-14T03:54:20.613Z,19.05
2019-04-14T03:56:17.668Z,25.02
2019-04-14T03:58:25.111Z,22.50
2019-04-14T04:00:33.561Z,23.62
2019-04-14T04:02:42.305Z,23.38
2019-04-14T04:04:51.201Z,22.25
2019-04-14T04:06:59.637Z,42.15
2019-04-14T04:09:08.470Z,38.25
2019-04-14T04:11:17.191Z,24.18
2019-04-14T04:13:25.963Z,23.05
2019-04-14T04:15:35.030Z,21.82
2019-04-14T04:17:45.200Z,24.37
2019-04-14T04:20:10.997Z,24.82
2019-04-14T04:22:37.035Z,22.37
2019-04-14T04:24:47.515Z,22.35
2019-04-14T04:26:58.149Z,22.32
2019-04-14T04:29:11.223Z,20.35
2019-04-14T04:31:24.227Z,24.37
2019-04-14T04:33:43.667Z,20.23
2019-04-14T04:35:56.491Z,23.15
2019-04-14T04:38:09.499Z,22.15
2019-04-14T04:40:20.107Z,19.87
2019-04-14T04:42:28.708Z,20.50
2019-04-14T04:44:37.672Z,17.75
2019-04-14T04:46:46.005Z,22.80
2019-04-14T04:49:03.189Z,21.97
2019-04-14T04:51:03.313Z,20.82
2019-04-14T04:53:11.541Z,20.17
2019-04-14T04:55:19.842Z,21.90
2019-04-14T04:57:28.541Z,20.37
2019-04-14T04:59:36.790Z,20.50
2019-04-14T05:01:45.163Z,19.60
2019-04-14T05:03:53.592Z,14.33
2019-04-14T05:06:39.753Z,22.55
2019-04-14T05:09:04.201Z,19.80
2019-04-14T05:11:14.358Z,17.07
2019-04-14T05:13:22.714Z,16.12
2019-04-14T05:15:33.401Z,17.52
2019-04-14T05:17:43.132Z,20.32
2019-04-14T05:19:52.057Z,22.37
2019-04-14T05:22:00.625Z,20.23
2019-04-14T05:24:09.277Z,19.30
2019-04-14T05:26:17.834Z,18.02
2019-04-14T05:28:26.715Z,17.23
2019-04-14T05:30:34.996Z,17.25
2019-04-14T05:32:43.429Z,16.57
2019-04-14T05:34:52.156Z,15.93
2019-04-14T05:37:00.688Z,20.12
2019-04-14T05:39:09.613Z,20.12
2019-04-14T05:41:18.020Z,16.77
2019-04-14T05:43:36.729Z,22.48
2019-04-14T05:45:35.298Z,18.85
2019-04-14T05:47:43.634Z,17.42
2019-04-14T05:49:54.673Z,17.45
2019-04-14T05:52:01.302Z,20.20
2019-04-14T05:54:09.950Z,17.82
2019-04-14T05:56:18.811Z,19.92
2019-04-14T05:58:27.508Z,28.30
2019-04-14T06:00:36.867Z,20.97
2019-04-14T06:02:46.243Z,22.17
2019-04-14T06:04:57.051Z,38.75
2019-04-14T06:07:05.263Z,26.52
2019-04-14T06:09:13.272Z,32.42
2019-04-14T06:11:20.944Z,26.60
2019-04-14T06:13:28.801Z,18.75
2019-04-14T06:15:36.815Z,20.27
2019-04-14T06:17:44.587Z,17.27
2019-04-14T06:19:52.448Z,18.82
2019-04-14T06:22:00.198Z,20.00
2019-04-14T06:24:08.023Z,18.45
2019-04-14T06:26:15.826Z,153.87
2019-04-14T06:28:23.518Z,273.02
2019-04-14T06:30:43.485Z,202.25
2019-04-14T06:32:52.168Z,129.20
2019-04-14T06:35:19.755Z,51.35
2019-04-14T06:37:29.167Z,61.80
2019-04-14T06:39:54.563Z,61.50
2019-04-14T06:42:02.414Z,66.02
2019-04-14T06:44:10.198Z,38.33
2019-04-14T06:46:19.100Z,30.50
2019-04-14T06:48:26.866Z,38.67
2019-04-14T06:50:34.679Z,51.37
2019-04-14T06:52:42.476Z,185.10
2019-04-14T06:54:50.316Z,128.12
2019-04-14T06:56:58.295Z,93.90
2019-04-14T06:59:06.139Z,205.37
2019-04-14T07:01:13.813Z,38.00
2019-04-14T07:03:21.675Z,29.40
2019-04-14T07:05:29.472Z,36.50
2019-04-14T07:07:37.369Z,59.48
2019-04-14T07:09:45.249Z,36.80
2019-04-14T07:11:53.146Z,53.98
2019-04-14T07:14:00.984Z,28.92
2019-04-14T07:16:08.713Z,24.50
2019-04-14T07:18:16.592Z,46.85
2019-04-14T07:20:24.358Z,52.65
2019-04-14T07:22:32.240Z,26.80
2019-04-14T07:24:40.172Z,29.77
2019-04-14T07:26:48.017Z,26.00
2019-04-14T07:28:56.798Z,36.40
2019-04-14T07:31:23.092Z,39.38
2019-04-14T07:33:36.594Z,21.40
2019-04-14T07:35:52.071Z,27.58
2019-04-14T07:38:01.420Z,33.63
2019-04-14T07:40:27.232Z,24.40
2019-04-14T07:42:45.575Z,33.15
2019-04-14T07:45:01.037Z,16.35
2019-04-14T07:47:08.949Z,17.98
2019-04-14T07:49:16.418Z,22.67
2019-04-14T07:51:25.922Z,26.60
2019-04-14T07:53:36.505Z,22.22
2019-04-14T07:55:55.320Z,27.93
2019-04-14T07:58:23.071Z,28.32
2019-04-14T08:00:36.487Z,24.80
2019-04-14T08:02:51.767Z,23.87
2019-04-14T08:05:03.935Z,18.62
2019-04-14T08:07:11.810Z,20.12
2019-04-14T08:09:19.691Z,22.17
2019-04-14T08:11:28.645Z,26.77
2019-04-14T08:13:37.291Z,22.00
2019-04-14T08:15:44.977Z,18.67
2019-04-14T08:17:52.779Z,17.75
2019-04-14T08:20:00.532Z,17.85
2019-04-14T08:22:08.311Z,17.67
2019-04-14T08:24:16.212Z,19.12
2019-04-14T08:26:24.006Z,16.37
2019-04-14T08:28:31.859Z,19.35
2019-04-14T08:30:39.746Z,18.12
2019-04-14T08:32:47.510Z,18.02
2019-04-14T08:34:55.310Z,20.45
2019-04-14T08:37:03.147Z,16.48
2019-04-14T08:39:11.081Z,22.87
2019-04-14T09:16:08.358Z,16.75
2019-04-14T09:18:16.287Z,19.12
2019-04-14T09:20:30.810Z,17.37
2019-04-14T09:22:41.558Z,17.10
2019-04-14T09:24:50.395Z,15.48
2019-04-14T09:26:58.789Z,17.60
2019-04-14T09:29:07.702Z,14.90
2019-04-14T09:31:16.838Z,17.07
2019-04-14T09:33:25.369Z,15.15
2019-04-14T09:35:34.441Z,17.57
2019-04-14T09:37:42.642Z,17.52
2019-04-14T09:39:50.337Z,15.72
2019-04-14T09:41:58.131Z,16.37
2019-04-14T09:44:06.221Z,15.55
2019-04-14T09:46:14.017Z,17.50
2019-04-14T09:48:21.905Z,17.70
2019-04-14T09:50:29.691Z,15.35
2019-04-14T09:52:37.483Z,17.07
2019-04-14T09:54:45.401Z,16.23
2019-04-14T09:56:53.199Z,20.82
2019-04-14T09:59:00.985Z,14.73
2019-04-14T10:01:09.169Z,15.08
2019-04-14T10:03:17.071Z,14.18
2019-04-14T10:05:24.762Z,16.10
2019-04-14T10:07:32.654Z,19.30
2019-04-14T10:09:40.482Z,25.02
2019-04-14T10:11:51.154Z,34.33
2019-04-14T10:13:59.369Z,18.00
2019-04-14T10:16:07.168Z,13.38
2019-04-14T10:18:14.957Z,15.30
2019-04-14T10:20:22.775Z,12.82
2019-04-14T10:22:34.239Z,13.88
2019-04-14T10:24:40.530Z,14.40
2019-04-14T10:26:48.340Z,15.05
2019-04-14T10:28:56.141Z,12.75
2019-04-14T10:31:03.933Z,12.68
2019-04-14T10:33:11.752Z,14.05
2019-04-14T10:35:19.444Z,12.93
2019-04-14T10:37:27.157Z,16.62
2019-04-14T10:39:35.102Z,13.20
2019-04-14T10:41:44.059Z,16.02
2019-04-14T10:43:51.751Z,12.90
2019-04-14T10:45:59.468Z,13.35
2019-04-14T10:48:07.230Z,19.73
2019-04-14T10:50:15.161Z,16.20
2019-04-14T10:52:24.068Z,20.17
2019-04-14T10:54:31.826Z,14.35
2019-04-14T10:56:39.578Z,15.88
2019-04-14T10:58:47.481Z,18.10
2019-04-14T11:00:55.431Z,13.93
2019-04-14T11:03:04.443Z,12.30
2019-04-14T11:05:12.468Z,12.33
2019-04-14T11:07:29.900Z,14.47
2019-04-14T11:09:37.907Z,12.78
2019-04-14T11:11:45.999Z,14.53
2019-04-14T11:13:54.659Z,14.35
2019-04-14T11:16:02.526Z,12.13
2019-04-14T11:18:10.248Z,11.75
2019-04-14T11:20:17.931Z,17.17
2019-04-14T11:22:25.831Z,15.25
2019-04-14T11:24:33.544Z,11.57
2019-04-14T11:26:41.394Z,13.90
2019-04-14T11:28:49.201Z,17.98
2019-04-14T11:30:57.091Z,29.77
2019-04-14T11:33:23.174Z,16.50
2019-04-14T11:35:42.011Z,26.37
2019-04-14T11:37:50.764Z,83.35
2019-04-14T11:39:58.718Z,236.37
2019-04-14T11:42:06.573Z,57.45
2019-04-14T11:44:14.414Z,45.70
2019-04-14T11:46:22.163Z,35.90
2019-04-14T11:48:30.210Z,87.78
2019-04-14T11:50:37.976Z,56.70
2019-04-14T11:52:45.768Z,12.75
2019-04-14T11:54:53.559Z,46.85
2019-04-14T11:57:01.586Z,12.28
2019-04-14T11:59:09.479Z,61.88
2019-04-14T12:01:19.732Z,29.63
2019-04-14T12:03:27.427Z,46.60
2019-04-14T12:05:37.921Z,22.70
2019-04-14T12:07:56.043Z,35.78
2019-04-14T12:10:08.503Z,48.52
2019-04-14T12:12:16.363Z,20.72
2019-04-14T12:14:24.228Z,29.85
2019-04-14T12:16:32.064Z,25.80
2019-04-14T12:18:40.314Z,39.60
2019-04-14T12:20:48.204Z,15.00
2019-04-14T12:22:56.082Z,24.43
2019-04-14T12:25:04.184Z,24.50
2019-04-14T12:27:11.999Z,21.40
2019-04-14T12:29:19.810Z,16.40
2019-04-14T12:31:28.717Z,31.50
2019-04-14T12:33:36.555Z,24.70
2019-04-14T12:35:44.374Z,11.93
2019-04-14T12:37:52.136Z,48.73
2019-04-14T12:39:59.926Z,37.20
2019-04-14T12:42:10.578Z,22.82
2019-04-14T12:44:24.289Z,12.78
2019-04-14T12:46:42.520Z,13.05
2019-04-14T12:48:50.102Z,10.82
2019-04-14T12:51:02.091Z,11.90
2019-04-14T12:53:09.883Z,10.00
2019-04-14T12:55:17.800Z,11.03
2019-04-14T12:57:27.222Z,7.85
2019-04-14T12:59:35.986Z,18.77
2019-04-14T13:01:43.569Z,9.65
2019-04-14T13:03:51.366Z,14.93
2019-04-14T13:05:59.180Z,10.53
2019-04-14T13:08:06.996Z,24.80
2019-04-14T13:10:15.332Z,11.78
2019-04-14T13:12:24.220Z,19.45
2019-04-14T13:14:34.653Z,21.82
2019-04-14T13:16:41.664Z,15.83
2019-04-14T13:18:50.328Z,10.75
2019-04-14T13:20:58.238Z,17.23
2019-04-14T13:23:06.191Z,15.88
2019-04-14T13:25:14.009Z,15.08
2019-04-14T13:27:23.219Z,10.50
2019-04-14T13:29:31.102Z,14.87
2019-04-14T13:31:38.786Z,17.07
2019-04-14T13:33:46.621Z,11.45
2019-04-14T13:35:54.504Z,14.73
2019-04-14T13:38:02.200Z,13.78
2019-04-14T13:40:11.824Z,8.05
2019-04-14T13:42:19.626Z,9.23
2019-04-14T13:44:29.008Z,13.20
2019-04-14T13:46:39.893Z,11.33
2019-04-14T13:48:48.916Z,12.25
2019-04-14T13:50:56.896Z,8.63
2019-04-14T13:53:05.456Z,10.40
2019-04-14T13:55:13.541Z,10.55
2019-04-14T13:57:21.372Z,10.05
2019-04-14T13:59:29.426Z,9.20
2019-04-14T14:01:37.288Z,10.32
2019-04-14T14:03:45.090Z,11.83
2019-04-14T14:05:52.911Z,11.55
2019-04-14T14:08:00.603Z,10.32
2019-04-14T14:10:10.688Z,13.28
2019-04-14T14:12:32.137Z,18.32
2019-04-14T14:14:57.674Z,17.37
2019-04-14T14:17:10.336Z,19.45
2019-04-14T14:19:20.021Z,13.58
2019-04-14T14:21:29.519Z,14.85
2019-04-14T14:23:38.883Z,15.58
2019-04-14T14:25:53.824Z,14.13
2019-04-14T14:28:01.666Z,16.82
2019-04-14T14:30:11.843Z,9.58
2019-04-14T14:32:27.241Z,18.57
2019-04-14T14:34:35.206Z,9.60
2019-04-14T14:36:44.701Z,13.62
2019-04-14T14:38:52.606Z,18.87
2019-04-14T14:41:02.087Z,21.20
2019-04-14T14:43:09.778Z,20.62
2019-04-14T14:45:17.699Z,38.08
2019-04-14T14:47:30.051Z,22.80
2019-04-14T14:49:43.651Z,13.18
2019-04-14T14:51:55.788Z,10.45
2019-04-14T14:54:03.572Z,13.90
2019-04-14T14:56:11.354Z,10.03
2019-04-14T14:58:19.171Z,10.85
2019-04-14T15:00:31.180Z,11.90
2019-04-14T15:02:39.074Z,10.95
2019-04-14T15:04:46.787Z,12.03
2019-04-14T15:06:54.655Z,12.47
2019-04-14T15:09:02.349Z,14.33
2019-04-14T15:11:11.951Z,12.13
2019-04-14T15:13:19.807Z,10.43
2019-04-14T15:15:27.823Z,11.57
2019-04-14T15:17:35.643Z,13.25
2019-04-14T15:19:44.359Z,8.75
2019-04-14T15:21:52.353Z,9.10
2019-04-14T15:24:00.297Z,10.40
2019-04-14T15:26:08.053Z,8.65
2019-04-14T15:28:15.913Z,8.28
2019-04-14T15:30:24.586Z,9.03
2019-04-14T15:32:32.486Z,12.00
2019-04-14T15:34:40.269Z,10.23
2019-04-14T15:36:51.219Z,11.53
2019-04-14T15:38:58.759Z,9.85
2019-04-14T15:41:07.581Z,10.78
2019-04-14T15:43:15.592Z,8.45
2019-04-14T15:45:23.477Z,7.83
2019-04-14T15:47:31.261Z,11.28
2019-04-14T15:49:39.139Z,10.50
2019-04-14T15:51:47.014Z,10.23
2019-04-14T15:53:54.675Z,10.45
2019-04-14T15:56:03.888Z,11.08
2019-04-14T15:58:13.324Z,12.58
2019-04-14T16:00:38.844Z,11.22
2019-04-14T16:02:48.474Z,11.83
2019-04-14T16:04:57.903Z,13.83
2019-04-14T16:07:08.315Z,10.78
2019-04-14T16:09:21.932Z,14.85
2019-04-14T16:11:40.283Z,12.47
2019-04-14T16:14:04.396Z,13.93
2019-04-14T16:16:17.836Z,31.82
2019-04-14T16:18:43.496Z,41.48
2019-04-14T16:20:52.484Z,27.75
2019-04-14T16:23:03.015Z,71.55
2019-04-14T16:25:11.218Z,149.23
2019-04-14T16:27:23.601Z,55.83
2019-04-14T16:29:42.279Z,47.75
2019-04-14T16:32:08.212Z,59.13
2019-04-14T16:34:20.336Z,47.48
2019-04-14T16:36:28.235Z,34.53
2019-04-14T16:38:36.136Z,37.95
2019-04-14T16:40:44.070Z,29.98
2019-04-14T16:42:51.811Z,38.38
2019-04-14T16:44:59.684Z,21.80
2019-04-14T16:47:07.486Z,42.33
2019-04-14T16:49:15.295Z,31.48
2019-04-14T16:51:30.314Z,40.90
2019-04-14T16:53:39.887Z,32.70
2019-04-14T16:56:02.858Z,40.63
2019-04-14T16:58:24.893Z,31.97
2019-04-14T17:00:37.024Z,32.67
2019-04-14T17:02:43.755Z,28.30
2019-04-14T17:04:51.621Z,30.57
2019-04-14T17:06:59.422Z,43.63
2019-04-14T17:09:08.669Z,44.77
2019-04-14T17:11:18.067Z,47.43
2019-04-14T17:13:27.677Z,48.68
2019-04-14T17:15:54.600Z,64.35
2019-04-14T17:18:02.184Z,38.67
2019-04-14T17:20:23.937Z,140.68
2019-04-14T17:22:31.722Z,146.53
2019-04-14T17:24:43.937Z,323.35
2019-04-14T17:29:17.210Z,786.28
2019-04-14T17:31:31.562Z,502.60
2019-04-14T17:33:41.110Z,704.50
2019-04-14T17:35:56.463Z,986.05
2019-04-14T17:38:11.998Z,910.05
2019-04-14T17:40:33.842Z,945.10
2019-04-14T17:42:49.305Z,576.73
2019-04-14T17:44:57.487Z,500.02
2019-04-14T17:47:07.004Z,460.45
2019-04-14T17:51:41.134Z,186.57
2019-04-14T17:53:50.683Z,127.30
2019-04-14T17:56:05.520Z,112.55
2019-04-14T17:58:14.958Z,56.68
2019-04-14T18:00:24.512Z,80.67
2019-04-14T18:02:36.916Z,65.95
2019-04-14T18:04:49.065Z,73.52
2019-04-14T18:07:01.496Z,78.15
2019-04-14T18:09:20.100Z,69.12
2019-04-14T18:11:29.725Z,37.10
2019-04-14T18:13:37.470Z,41.13
2019-04-14T18:16:03.617Z,36.53
2019-04-14T18:18:23.191Z,73.60
2019-04-14T18:20:35.299Z,80.42
2019-04-14T18:22:43.205Z,84.28
2019-04-14T18:24:50.981Z,70.83
2019-04-14T18:26:58.758Z,67.78
2019-04-14T18:29:24.705Z,34.25
2019-04-14T18:31:34.121Z,35.25
2019-04-14T18:33:43.537Z,57.20
2019-04-14T18:35:58.826Z,61.28
2019-04-14T18:38:16.996Z,66.67
2019-04-14T18:40:32.446Z,148.28
2019-04-14T18:42:48.245Z,118.30
2019-04-14T18:45:03.647Z,124.15
2019-04-14T18:47:11.205Z,103.07
2019-04-14T18:49:20.665Z,80.53
2019-04-14T18:51:30.055Z,104.95
2019-04-14T18:53:42.674Z,98.27
2019-04-14T18:55:53.296Z,72.95
2019-04-14T18:58:00.991Z,57.50
2019-04-14T19:00:13.514Z,65.40
2019-04-14T19:02:21.467Z,188.20
2019-04-14T19:04:29.330Z,75.10
2019-04-14T19:06:37.193Z,48.33
2019-04-14T19:08:45.083Z,75.22
2019-04-14T19:11:11.029Z,39.90
2019-04-14T19:13:23.462Z,51.40
2019-04-14T19:15:35.746Z,38.95
2019-04-14T19:17:51.039Z,41.20
2019-04-14T19:20:01.933Z,41.75
2019-04-14T19:22:10.522Z,52.60
2019-04-14T19:24:18.428Z,70.40
2019-04-14T19:26:26.305Z,87.27
2019-04-14T19:28:34.137Z,80.70
2019-04-14T19:30:41.922Z,49.42
2019-04-14T19:32:49.694Z,37.88
2019-04-14T19:34:57.487Z,32.38
2019-04-14T19:37:05.268Z,31.05
2019-04-14T19:39:13.040Z,29.45
2019-04-14T19:41:20.910Z,30.50
2019-04-14T19:43:28.828Z,30.55
2019-04-14T19:45:36.639Z,28.60
2019-04-14T19:47:44.450Z,28.85
2019-04-14T19:49:52.126Z,33.30
2019-04-14T19:51:59.896Z,27.75
2019-04-14T19:54:07.802Z,23.52
2019-04-14T19:56:15.567Z,23.62
2019-04-14T19:58:23.352Z,24.55
2019-04-14T20:00:31.087Z,21.10
2019-04-14T20:02:38.889Z,22.55
2019-04-14T20:04:46.757Z,22.70
2019-04-14T20:06:54.610Z,24.45
2019-04-14T20:09:02.531Z,24.02
2019-04-14T20:11:11.578Z,25.52
2019-04-14T20:13:19.394Z,26.12
2019-04-14T20:15:29.974Z,25.02
2019-04-14T20:17:41.395Z,25.10
2019-04-14T20:19:59.165Z,26.02
2019-04-14T20:22:11.659Z,21.55
2019-04-14T20:24:37.821Z,25.00
2019-04-14T20:27:03.596Z,27.25
2019-04-14T20:29:12.905Z,29.95
2019-04-14T20:31:22.275Z,40.03
2019-04-14T20:33:30.168Z,33.88
2019-04-14T20:35:37.839Z,28.12
2019-04-14T20:37:45.517Z,63.15
2019-04-14T20:39:53.320Z,174.35
2019-04-14T20:42:01.168Z,104.50
2019-04-14T20:44:09.091Z,118.28
2019-04-14T20:46:16.969Z,43.08
2019-04-14T20:48:24.755Z,131.00
2019-04-14T20:50:32.609Z,70.55
2019-04-14T20:52:40.401Z,148.95
2019-04-14T20:54:48.088Z,109.97
2019-04-14T20:56:56.032Z,103.07
2019-04-14T20:59:04.400Z,142.55
2019-04-14T21:01:13.350Z,50.00
2019-04-14T21:03:22.763Z,61.20
2019-04-14T21:05:41.004Z,71.97
2019-04-14T21:08:00.518Z,56.90
2019-04-14T21:10:12.998Z,68.22
2019-04-14T21:12:20.474Z,44.00
2019-04-14T21:14:32.723Z,57.00
2019-04-14T21:16:58.366Z,57.43
2019-04-14T21:19:13.648Z,34.67
2019-04-14T21:21:24.944Z,39.10
2019-04-14T21:23:38.546Z,34.90
2019-04-14T21:26:04.192Z,32.05
2019-04-14T21:28:13.609Z,29.30
2019-04-14T21:30:25.869Z,31.95
2019-04-14T21:32:41.110Z,24.43
2019-04-14T21:34:48.553Z,21.97
2019-04-14T21:37:14.382Z,20.37
2019-04-14T21:39:40.726Z,22.80
2019-04-14T21:41:52.443Z,25.82
2019-04-14T21:44:00.385Z,19.85
2019-04-14T21:46:10.375Z,20.95
2019-04-14T21:48:18.060Z,22.77
2019-04-14T21:50:25.828Z,22.77
2019-04-14T21:52:35.268Z,22.52
2019-04-14T21:54:44.525Z,20.80
2019-04-14T21:56:53.949Z,25.05
2019-04-14T21:59:19.707Z,16.67
2019-04-14T22:01:47.853Z,25.23
2019-04-14T22:04:03.175Z,23.62
2019-04-14T22:06:15.416Z,24.92
2019-04-14T22:08:25.542Z,19.92
2019-04-14T22:10:41.275Z,18.27
2019-04-14T22:20:16.590Z,23.10
2019-04-14T22:22:26.128Z,21.15
2019-04-14T22:24:33.968Z,23.22
2019-04-14T22:26:41.864Z,22.27
2019-04-14T22:28:49.639Z,23.70
2019-04-14T22:30:57.768Z,19.12
2019-04-14T22:33:05.887Z,19.12
2019-04-14T22:35:15.253Z,22.58
2019-04-14T22:37:23.079Z,22.62
2019-04-14T22:39:30.884Z,19.57
2019-04-14T22:41:38.664Z,21.70
2019-04-14T22:43:46.503Z,19.82
2019-04-14T22:45:54.407Z,21.37
2019-04-14T22:48:02.318Z,24.18
2019-04-14T22:50:10.403Z,16.73
2019-04-14T22:52:18.097Z,19.98
2019-04-14T22:54:25.897Z,20.90
2019-04-14T22:56:39.364Z,21.90
2019-04-14T22:58:43.254Z,29.20
2019-04-14T23:00:52.938Z,23.22
2019-04-14T23:03:06.859Z,24.98
2019-04-14T23:05:29.836Z,22.67
2019-04-14T23:07:46.139Z,23.95
2019-04-14T23:09:55.558Z,25.45
2019-04-14T23:12:03.199Z,24.00
2019-04-14T23:14:18.733Z,22.22
2019-04-14T23:16:28.208Z,22.07
2019-04-14T23:18:37.922Z,23.55
2019-04-14T23:20:50.302Z,22.52
2019-04-14T23:23:11.694Z,24.18
2019-04-14T23:25:19.503Z,24.40
2019-04-14T23:27:28.161Z,24.23
2019-04-14T23:29:35.933Z,24.30
2019-04-14T23:31:43.735Z,21.80
2019-04-14T23:33:51.507Z,24.07
2019-04-14T23:36:00.476Z,22.15
2019-04-14T23:38:08.808Z,24.77
2019-04-14T23:40:16.728Z,26.33
2019-04-14T23:42:24.496Z,28.98
2019-04-14T23:44:32.507Z,22.22
2019-04-14T23:46:40.361Z,22.85
2019-04-14T23:48:48.204Z,22.25
2019-04-14T23:50:56.006Z,22.10
2019-04-14T23:53:03.681Z,20.45
2019-04-14T23:55:11.698Z,23.18
2019-04-14T23:57:19.499Z,25.60
2019-04-14T23:59:27.240Z,24.30
